Stanley, United Kingdom
Current Conditions -  °F | °C
As of 8:20 AM on Saturday 29 Nov 2014 (Local Time) from EGNT Reporting Station
Haze Haze  
Wind Chill:   Ceiling: 500
Heat Index:   Visibility: 2.5mi
Dew Point:   Wind: 5mph
Humidity: 100%   Direction: 140°SE
Pressure: 29.85"   Gusts: NA
Location:  54.87°N, 1.7°W
Report Text: EGNT 290820Z 14004KT 100V180 4000 BR BKN005 09/09 Q1011
Loading
Personal Weather Stations






























Interactive Weather Map New forecast layout! Learn more

10-Day Weather Forecast

Advertisements
Track Severe Weather on mobile